createdAt,value
2023-03-10T00:00:00.711Z,511.00
2023-03-10T00:04:00.966Z,505.00
2023-03-10T00:08:00.780Z,505.00
2023-03-10T00:12:00.868Z,509.00
2023-03-10T00:16:00.952Z,510.00
2023-03-10T00:20:00.947Z,506.00
2023-03-10T00:24:00.898Z,505.00
2023-03-10T00:28:00.988Z,509.00
2023-03-10T00:32:00.943Z,502.00
2023-03-10T00:36:00.909Z,505.00
2023-03-10T00:40:00.866Z,505.00
2023-03-10T00:44:00.893Z,501.00
2023-03-10T00:48:00.864Z,506.00
2023-03-10T00:52:00.859Z,508.00
2023-03-10T00:56:00.839Z,501.00
2023-03-10T01:00:00.830Z,504.00
2023-03-10T01:04:00.853Z,505.00
2023-03-10T01:08:00.764Z,504.00
2023-03-10T01:12:00.762Z,506.00
2023-03-10T01:16:00.797Z,502.00
2023-03-10T01:20:00.753Z,505.00
2023-03-10T01:24:00.766Z,504.00
2023-03-10T01:28:00.715Z,507.00
2023-03-10T01:32:00.700Z,510.00
2023-03-10T01:36:00.712Z,509.00
2023-03-10T01:40:00.665Z,501.00
2023-03-10T01:44:00.629Z,503.00
2023-03-10T01:48:01.283Z,509.00
2023-03-10T01:52:00.670Z,505.00
2023-03-10T01:56:00.809Z,511.00
2023-03-10T02:00:00.680Z,506.00
2023-03-10T02:04:00.675Z,506.00
2023-03-10T02:08:00.698Z,504.00
2023-03-10T02:12:00.726Z,506.00
2023-03-10T02:16:00.755Z,511.00
2023-03-10T02:20:00.731Z,509.00
2023-03-10T02:24:01.909Z,504.00
2023-03-10T02:28:00.779Z,506.00
2023-03-10T02:32:00.853Z,502.00
2023-03-10T02:36:00.853Z,507.00
2023-03-10T02:40:00.802Z,507.00
2023-03-10T02:44:00.843Z,502.00
2023-03-10T02:48:00.849Z,506.00
2023-03-10T02:52:00.828Z,508.00
2023-03-10T02:56:00.803Z,506.00
2023-03-10T03:00:00.879Z,509.00
2023-03-10T03:04:00.847Z,504.00
2023-03-10T03:08:00.819Z,500.00
2023-03-10T03:12:00.825Z,503.00
2023-03-10T03:16:00.872Z,503.00
2023-03-10T03:20:00.889Z,506.00
2023-03-10T03:24:01.124Z,507.00
2023-03-10T03:28:01.047Z,506.00
2023-03-10T03:32:01.081Z,507.00
2023-03-10T03:36:01.060Z,508.00
2023-03-10T03:40:01.113Z,505.00
2023-03-10T03:44:01.088Z,502.00
2023-03-10T03:48:01.139Z,505.00
2023-03-10T03:52:01.176Z,506.00
2023-03-10T03:56:01.182Z,507.00
2023-03-10T04:00:01.255Z,506.00
2023-03-10T04:04:01.314Z,504.00
2023-03-10T04:08:01.385Z,503.00
2023-03-10T04:12:01.402Z,505.00
2023-03-10T04:16:01.475Z,505.00
2023-03-10T04:20:07.128Z,503.00
2023-03-10T04:24:02.470Z,504.00
2023-03-10T04:28:01.438Z,507.00
2023-03-10T04:32:05.548Z,506.00
2023-03-10T04:36:01.366Z,502.00
2023-03-10T04:40:01.288Z,500.00
2023-03-10T04:44:01.286Z,505.00
2023-03-10T04:48:01.256Z,509.00
2023-03-10T04:52:01.199Z,508.00
2023-03-10T04:56:01.162Z,512.00
2023-03-10T05:00:03.142Z,504.00
2023-03-10T05:04:01.136Z,504.00
2023-03-10T05:08:01.062Z,503.00
2023-03-10T05:12:01.070Z,503.00
2023-03-10T05:16:01.112Z,504.00
2023-03-10T05:20:01.138Z,508.00
2023-03-10T05:24:01.107Z,513.00
2023-03-10T05:28:01.134Z,507.00
2023-03-10T05:32:01.154Z,504.00
2023-03-10T05:36:01.235Z,507.00
2023-03-10T05:40:01.206Z,508.00
2023-03-10T05:44:01.179Z,502.00
2023-03-10T05:48:01.216Z,507.00
2023-03-10T05:52:01.229Z,506.00
2023-03-10T05:56:01.300Z,508.00
2023-03-10T06:00:01.331Z,503.00
2023-03-10T06:04:01.404Z,512.00
2023-03-10T06:08:01.372Z,512.00
2023-03-10T06:12:01.405Z,512.00
2023-03-10T06:16:01.511Z,507.00
2023-03-10T06:20:01.455Z,511.00
2023-03-10T06:24:01.530Z,517.00
2023-03-10T06:28:01.504Z,511.00
2023-03-10T06:32:01.592Z,507.00
2023-03-10T06:36:01.651Z,512.00
2023-03-10T06:40:01.885Z,510.00
2023-03-10T06:44:01.900Z,514.00
2023-03-10T06:48:01.684Z,526.00
2023-03-10T06:52:01.913Z,538.00
2023-03-10T06:56:01.882Z,550.00
2023-03-10T07:00:01.944Z,554.00
2023-03-10T07:04:01.761Z,551.00
2023-03-10T07:08:01.861Z,550.00
2023-03-10T07:12:01.865Z,556.00
2023-03-10T07:16:01.913Z,550.00
2023-03-10T07:20:01.930Z,556.00
2023-03-10T07:24:01.957Z,552.00
2023-03-10T07:28:01.977Z,552.00
2023-03-10T07:32:02.417Z,558.00
2023-03-10T07:36:02.087Z,561.00
2023-03-10T07:40:02.137Z,555.00
2023-03-10T07:44:02.397Z,554.00
2023-03-10T07:48:02.410Z,555.00
2023-03-10T07:52:02.405Z,558.00
2023-03-10T07:56:02.268Z,577.00
2023-03-10T08:00:02.460Z,595.00
2023-03-10T08:04:02.411Z,563.00
2023-03-10T08:08:02.331Z,556.00
2023-03-10T08:12:02.337Z,607.00
2023-03-10T08:16:02.531Z,623.00
2023-03-10T08:20:02.377Z,643.00
2023-03-10T08:24:02.552Z,675.00
2023-03-10T08:28:02.515Z,685.00
2023-03-10T08:32:02.524Z,741.00
2023-03-10T08:36:02.548Z,796.00
2023-03-10T08:40:02.434Z,875.00
2023-03-10T08:44:02.424Z,954.00
2023-03-10T08:48:02.439Z,1036.00
2023-03-10T08:52:02.296Z,1037.00
2023-03-10T08:56:02.277Z,1032.00
2023-03-10T09:00:02.467Z,1038.00
2023-03-10T09:04:02.209Z,1102.00
2023-03-10T09:08:02.159Z,1146.00
2023-03-10T09:12:02.121Z,1203.00
2023-03-10T09:16:02.139Z,1249.00
2023-03-10T09:20:02.103Z,1298.00
2023-03-10T09:24:02.022Z,1330.00
2023-03-10T09:28:01.959Z,1374.00
2023-03-10T09:32:01.998Z,1408.00
2023-03-10T09:36:06.958Z,1440.00
2023-03-10T09:40:05.836Z,1481.00
2023-03-10T09:44:02.475Z,1498.00
2023-03-10T09:48:03.849Z,1582.00
2023-03-10T09:52:01.951Z,1601.00
2023-03-10T09:56:01.919Z,1562.00
2023-03-10T10:00:01.940Z,1450.00
2023-03-10T10:04:02.077Z,1340.00
2023-03-10T10:08:01.790Z,1294.00
2023-03-10T10:12:01.744Z,1240.00
2023-03-10T10:16:18.318Z,1218.00
2023-03-10T10:20:02.691Z,1223.00
2023-03-10T10:24:01.711Z,1236.00
2023-03-10T10:28:01.775Z,1234.00
2023-03-10T10:32:01.881Z,1235.00
2023-03-10T10:36:02.031Z,1229.00
2023-03-10T10:40:03.393Z,1231.00
2023-03-10T10:44:02.147Z,1253.00
2023-03-10T10:48:02.472Z,1246.00
2023-03-10T10:52:02.548Z,1287.00
2023-03-10T10:56:02.492Z,1286.00
2023-03-10T11:00:02.427Z,1304.00
2023-03-10T11:04:03.005Z,1310.00
2023-03-10T11:08:02.585Z,1330.00
2023-03-10T11:12:02.985Z,1355.00
2023-03-10T11:16:02.668Z,1365.00
2023-03-10T11:20:02.686Z,1378.00
2023-03-10T11:24:02.681Z,1399.00
2023-03-10T11:28:03.020Z,1406.00
2023-03-10T11:32:02.735Z,1405.00
2023-03-10T11:36:03.045Z,1404.00
2023-03-10T11:40:03.016Z,1392.00
2023-03-10T11:44:03.028Z,1403.00
2023-03-10T11:48:02.919Z,1380.00
2023-03-10T11:52:03.489Z,1345.00
2023-03-10T11:56:03.539Z,1320.00
2023-03-10T12:00:03.274Z,1280.00
2023-03-10T12:04:03.360Z,1239.00
2023-03-10T12:08:03.491Z,1209.00
2023-03-10T12:12:04.000Z,1201.00
2023-03-10T12:16:04.043Z,1153.00
2023-03-10T12:20:03.917Z,1134.00
2023-03-10T12:24:04.534Z,1115.00
2023-03-10T12:28:04.520Z,1099.00
2023-03-10T12:32:04.538Z,1055.00
2023-03-10T12:36:05.052Z,1035.00
2023-03-10T12:40:04.763Z,1024.00
2023-03-10T12:44:04.749Z,1009.00
2023-03-10T12:48:04.709Z,983.00
2023-03-10T12:52:04.665Z,963.00
2023-03-10T12:56:04.660Z,887.00
2023-03-10T13:00:04.623Z,947.00
2023-03-10T13:04:04.750Z,911.00
2023-03-10T13:08:04.525Z,890.00
2023-03-10T13:12:04.516Z,850.00
2023-03-10T13:16:04.568Z,834.00
2023-03-10T13:20:04.448Z,792.00
2023-03-10T13:24:04.372Z,767.00
2023-03-10T13:28:04.368Z,761.00
2023-03-10T13:32:04.439Z,757.00
2023-03-10T13:36:04.325Z,734.00
2023-03-10T13:40:04.237Z,745.00
2023-03-10T13:44:04.227Z,748.00
2023-03-10T13:48:04.440Z,729.00
2023-03-10T13:52:04.619Z,724.00
2023-03-10T13:56:04.818Z,698.00
2023-03-10T14:00:05.028Z,705.00
2023-03-10T14:04:05.262Z,701.00
2023-03-10T14:08:05.160Z,684.00
2023-03-10T14:12:05.133Z,680.00
2023-03-10T14:16:05.110Z,677.00
2023-03-10T14:20:05.110Z,669.00
2023-03-10T14:24:05.044Z,662.00
2023-03-10T14:28:04.998Z,656.00
2023-03-10T14:32:04.974Z,659.00
2023-03-10T14:36:04.980Z,658.00
2023-03-10T14:40:04.905Z,645.00
2023-03-10T14:44:04.868Z,650.00
2023-03-10T14:48:05.020Z,645.00
2023-03-10T14:52:04.761Z,634.00
2023-03-10T14:56:04.752Z,638.00
2023-03-10T15:00:04.712Z,634.00
2023-03-10T15:04:04.700Z,633.00
2023-03-10T15:08:05.480Z,629.00
2023-03-10T15:12:04.641Z,624.00
2023-03-10T15:16:04.679Z,619.00
2023-03-10T15:20:04.536Z,617.00
2023-03-10T15:24:04.499Z,618.00
2023-03-10T15:28:04.463Z,614.00
2023-03-10T15:32:04.443Z,615.00
2023-03-10T15:36:04.390Z,610.00
2023-03-10T15:40:04.476Z,601.00
2023-03-10T15:44:04.351Z,597.00
2023-03-10T15:48:04.313Z,595.00
2023-03-10T15:52:04.251Z,591.00
2023-03-10T15:56:04.312Z,588.00
2023-03-10T16:00:04.305Z,583.00
2023-03-10T16:04:04.143Z,568.00
2023-03-10T16:08:04.113Z,564.00
2023-03-10T16:12:04.080Z,562.00
2023-03-10T16:16:04.049Z,557.00
2023-03-10T16:20:04.033Z,561.00
2023-03-10T16:24:03.959Z,555.00
2023-03-10T16:28:03.912Z,544.00
2023-03-10T16:32:03.967Z,547.00
2023-03-10T16:36:03.976Z,542.00
2023-03-10T16:40:04.040Z,532.00
2023-03-10T16:44:04.069Z,534.00
2023-03-10T16:48:04.159Z,532.00
2023-03-10T16:52:04.263Z,524.00
2023-03-10T16:56:04.390Z,533.00
2023-03-10T17:00:04.514Z,524.00
2023-03-10T17:04:04.752Z,513.00
2023-03-10T17:08:04.819Z,508.00
2023-03-10T17:12:04.969Z,509.00
2023-03-10T17:16:05.217Z,507.00
2023-03-10T17:20:05.272Z,506.00
2023-03-10T17:24:05.435Z,511.00
2023-03-10T17:28:05.625Z,502.00
2023-03-10T17:32:05.868Z,509.00
2023-03-10T17:36:06.067Z,503.00
2023-03-10T17:40:06.217Z,504.00
2023-03-10T17:44:06.436Z,505.00
2023-03-10T17:48:06.573Z,504.00
2023-03-10T17:52:06.790Z,505.00
2023-03-10T17:56:06.982Z,503.00
2023-03-10T18:00:07.245Z,508.00
2023-03-10T18:04:07.184Z,500.00
2023-03-10T18:08:07.153Z,507.00
2023-03-10T18:12:07.118Z,505.00
2023-03-10T18:16:07.107Z,506.00
2023-03-10T18:20:07.010Z,500.00
2023-03-10T18:24:06.995Z,502.00
2023-03-10T18:28:06.958Z,508.00
2023-03-10T18:32:06.923Z,508.00
2023-03-10T18:36:06.900Z,512.00
2023-03-10T18:40:06.979Z,509.00
2023-03-10T18:44:06.930Z,513.00
2023-03-10T18:48:06.891Z,513.00
2023-03-10T18:52:06.854Z,515.00
2023-03-10T18:56:06.803Z,511.00
2023-03-10T19:00:06.789Z,512.00
2023-03-10T19:04:06.768Z,503.00
2023-03-10T19:08:06.692Z,508.00
2023-03-10T19:12:06.704Z,503.00
2023-03-10T19:16:06.688Z,505.00
2023-03-10T19:20:06.685Z,505.00
2023-03-10T19:24:06.576Z,509.00
2023-03-10T19:28:06.513Z,508.00
2023-03-10T19:32:06.474Z,513.00
2023-03-10T19:36:06.524Z,501.00
2023-03-10T19:40:06.418Z,505.00
2023-03-10T19:44:06.385Z,504.00
2023-03-10T19:48:06.358Z,501.00
2023-03-10T19:52:06.322Z,505.00
2023-03-10T19:56:06.262Z,511.00
2023-03-10T20:00:06.253Z,515.00
2023-03-10T20:04:06.251Z,510.00
2023-03-10T20:08:06.280Z,507.00
2023-03-10T20:12:06.212Z,510.00
2023-03-10T20:16:06.215Z,506.00
2023-03-10T20:20:06.136Z,504.00
2023-03-10T20:24:06.145Z,500.00
2023-03-10T20:28:06.135Z,506.00
2023-03-10T20:32:06.151Z,511.00
2023-03-10T20:36:06.074Z,510.00
2023-03-10T20:40:06.077Z,506.00
2023-03-10T20:44:06.052Z,505.00
2023-03-10T20:48:06.008Z,515.00
2023-03-10T20:52:06.010Z,510.00
2023-03-10T20:56:06.026Z,500.00
2023-03-10T21:00:06.012Z,506.00
2023-03-10T21:04:06.048Z,504.00
2023-03-10T21:08:05.979Z,500.00
2023-03-10T21:12:05.983Z,520.00
2023-03-10T21:16:06.011Z,510.00
2023-03-10T21:20:06.024Z,503.00
2023-03-10T21:24:06.006Z,507.00
2023-03-10T21:28:06.028Z,510.00
2023-03-10T21:32:06.073Z,506.00
2023-03-10T21:36:06.073Z,516.00
2023-03-10T21:40:06.018Z,511.00
2023-03-10T21:44:06.006Z,506.00
2023-03-10T21:48:06.000Z,509.00
2023-03-10T21:52:05.999Z,513.00
2023-03-10T21:56:06.459Z,508.00
2023-03-10T22:00:05.990Z,506.00
2023-03-10T22:04:06.012Z,507.00
2023-03-10T22:08:05.986Z,503.00
2023-03-10T22:12:06.093Z,507.00
2023-03-10T22:16:06.172Z,518.00
2023-03-10T22:20:06.065Z,516.00
2023-03-10T22:24:06.074Z,513.00
2023-03-10T22:28:06.086Z,511.00
2023-03-10T22:32:06.117Z,505.00
2023-03-10T22:36:06.295Z,504.00
2023-03-10T22:40:06.178Z,505.00
2023-03-10T22:44:06.252Z,502.00
2023-03-10T22:48:06.248Z,504.00
2023-03-10T22:52:06.278Z,504.00
2023-03-10T22:56:06.325Z,502.00
2023-03-10T23:00:06.326Z,500.00
2023-03-10T23:04:06.321Z,515.00
2023-03-10T23:08:06.387Z,506.00
2023-03-10T23:12:06.399Z,513.00
2023-03-10T23:16:06.476Z,500.00
2023-03-10T23:20:06.451Z,500.00
2023-03-10T23:24:06.491Z,512.00
2023-03-10T23:28:06.518Z,522.00
2023-03-10T23:32:06.550Z,523.00
2023-03-10T23:36:06.662Z,531.00
2023-03-10T23:40:06.636Z,528.00
2023-03-10T23:44:06.657Z,522.00
2023-03-10T23:48:06.727Z,529.00
2023-03-10T23:52:06.748Z,532.00
2023-03-10T23:56:06.793Z,535.00
